Terminal Aerodrome Forecast
Issued by NWS Spokane, WA

Home | Current Version | Previous Version | Text Only | Print | Product List | Glossary On
Versions: 1 2 3 4 5 6 7 8 9 10 11 12 13
000
FTUS46 KOTX 230534
TAFLWS
TAF
KLWS 230534Z 2306/2406 VRB04KT P6SM SCT060
     FM231300 11008KT P6SM SCT150 BKN200
     FM232100 12008KT P6SM VCSH OVC070
     FM240200 16010G20KT P6SM VCSH OVC060=

USA.gov is the U.S. government's official web portal to all federal, state and local government web resources and services.